sensor_id;sensor_type;location;lat;lon;timestamp;pressure;altitude;pressure_sealevel;temperature;humidity
29215;BME280;16252;49.816;7.964;2023-02-11T00:00:20;102036.28;;;6.10;55.81
29215;BME280;16252;49.816;7.964;2023-02-11T00:02:46;102038.69;;;6.21;55.99
29215;BME280;16252;49.816;7.964;2023-02-11T00:05:11;102013.38;;;6.06;55.91
29215;BME280;16252;49.816;7.964;2023-02-11T00:07:36;102014.31;;;6.03;55.91
29215;BME280;16252;49.816;7.964;2023-02-11T00:10:03;102041.38;;;6.19;55.95
29215;BME280;16252;49.816;7.964;2023-02-11T00:12:29;102041.50;;;6.15;55.86
29215;BME280;16252;49.816;7.964;2023-02-11T00:14:54;102011.00;;;5.95;55.94
29215;BME280;16252;49.816;7.964;2023-02-11T00:17:20;102041.34;;;6.21;55.82
29215;BME280;16252;49.816;7.964;2023-02-11T00:19:48;102035.28;;;6.16;55.99
29215;BME280;16252;49.816;7.964;2023-02-11T00:22:14;102021.28;;;6.07;55.77
29215;BME280;16252;49.816;7.964;2023-02-11T00:24:39;101981.19;;;5.81;55.83
29215;BME280;16252;49.816;7.964;2023-02-11T00:27:05;102046.72;;;6.18;56.02
29215;BME280;16252;49.816;7.964;2023-02-11T00:29:30;101996.78;;;5.96;55.77
29215;BME280;16252;49.816;7.964;2023-02-11T00:31:55;102035.00;;;6.26;55.99
29215;BME280;16252;49.816;7.964;2023-02-11T00:34:21;102034.13;;;6.26;55.95
29215;BME280;16252;49.816;7.964;2023-02-11T00:36:46;102034.97;;;6.28;55.95
29215;BME280;16252;49.816;7.964;2023-02-11T00:39:13;102039.44;;;6.26;55.97
29215;BME280;16252;49.816;7.964;2023-02-11T00:41:38;102021.81;;;6.22;55.92
29215;BME280;16252;49.816;7.964;2023-02-11T00:44:04;102011.19;;;6.22;55.93
29215;BME280;16252;49.816;7.964;2023-02-11T00:46:29;102013.84;;;6.22;55.94
29215;BME280;16252;49.816;7.964;2023-02-11T00:48:54;101994.47;;;6.17;56.02
29215;BME280;16252;49.816;7.964;2023-02-11T00:51:22;102026.78;;;6.36;55.97
29215;BME280;16252;49.816;7.964;2023-02-11T00:53:48;102012.81;;;6.27;56.03
29215;BME280;16252;49.816;7.964;2023-02-11T00:56:13;102029.38;;;6.37;56.03
29215;BME280;16252;49.816;7.964;2023-02-11T00:58:38;101969.06;;;6.06;55.86
29215;BME280;16252;49.816;7.964;2023-02-11T01:01:03;102017.06;;;6.35;56.02
29215;BME280;16252;49.816;7.964;2023-02-11T01:03:29;101923.47;;;5.88;56.01
29215;BME280;16252;49.816;7.964;2023-02-11T01:05:54;101999.56;;;6.26;55.97
29215;BME280;16252;49.816;7.964;2023-02-11T01:08:20;102002.97;;;6.31;55.97
29215;BME280;16252;49.816;7.964;2023-02-11T01:10:56;102007.16;;;6.40;56.02
29215;BME280;16252;49.816;7.964;2023-02-11T01:13:21;101991.41;;;6.32;55.80
29215;BME280;16252;49.816;7.964;2023-02-11T01:15:47;101991.38;;;6.34;55.81
29215;BME280;16252;49.816;7.964;2023-02-11T01:18:12;101998.22;;;6.42;55.86
29215;BME280;16252;49.816;7.964;2023-02-11T01:20:37;102022.88;;;6.49;56.04
29215;BME280;16252;49.816;7.964;2023-02-11T01:23:03;101980.03;;;6.27;55.80
29215;BME280;16252;49.816;7.964;2023-02-11T01:25:28;102020.16;;;6.50;55.89
29215;BME280;16252;49.816;7.964;2023-02-11T01:27:53;101988.59;;;6.38;55.81
29215;BME280;16252;49.816;7.964;2023-02-11T01:30:18;101957.88;;;6.28;55.98
29215;BME280;16252;49.816;7.964;2023-02-11T01:32:44;101983.13;;;6.44;55.77
29215;BME280;16252;49.816;7.964;2023-02-11T01:35:09;102002.28;;;6.56;55.76
29215;BME280;16252;49.816;7.964;2023-02-11T01:37:35;101957.78;;;6.31;55.85
29215;BME280;16252;49.816;7.964;2023-02-11T01:40:01;101999.59;;;6.57;55.64
29215;BME280;16252;49.816;7.964;2023-02-11T01:42:27;101988.19;;;6.54;55.77
29215;BME280;16252;49.816;7.964;2023-02-11T01:44:54;101973.31;;;6.46;55.72
29215;BME280;16252;49.816;7.964;2023-02-11T01:47:20;101980.34;;;6.47;55.83
29215;BME280;16252;49.816;7.964;2023-02-11T01:49:48;101957.47;;;6.42;55.87
29215;BME280;16252;49.816;7.964;2023-02-11T01:54:48;101982.94;;;6.50;55.78
29215;BME280;16252;49.816;7.964;2023-02-11T01:57:35;101976.63;;;6.55;55.74
29215;BME280;16252;49.816;7.964;2023-02-11T02:00:07;101976.59;;;6.56;55.63
29215;BME280;16252;49.816;7.964;2023-02-11T02:05:32;101886.53;;;6.11;55.57
29215;BME280;16252;49.816;7.964;2023-02-11T02:10:26;101940.06;;;6.30;55.73
29215;BME280;16252;49.816;7.964;2023-02-11T02:12:52;101930.47;;;6.24;55.73
29215;BME280;16252;49.816;7.964;2023-02-11T02:15:20;101969.59;;;6.52;55.77
29215;BME280;16252;49.816;7.964;2023-02-11T02:17:53;101937.06;;;6.42;55.78
29215;BME280;16252;49.816;7.964;2023-02-11T02:21:12;101954.34;;;6.59;55.40
29215;BME280;16252;49.816;7.964;2023-02-11T02:34:28;101943.88;;;6.53;55.85
29215;BME280;16252;49.816;7.964;2023-02-11T02:37:07;101893.84;;;6.36;56.02
29215;BME280;16252;49.816;7.964;2023-02-11T02:39:36;101906.00;;;6.44;55.86
29215;BME280;16252;49.816;7.964;2023-02-11T02:42:03;101925.09;;;6.59;56.12
29215;BME280;16252;49.816;7.964;2023-02-11T02:44:29;101905.72;;;6.54;56.00
29215;BME280;16252;49.816;7.964;2023-02-11T02:46:55;101918.84;;;6.60;56.04
29215;BME280;16252;49.816;7.964;2023-02-11T02:49:20;101906.47;;;6.59;55.90
29215;BME280;16252;49.816;7.964;2023-02-11T02:51:57;101910.72;;;6.64;56.13
29215;BME280;16252;49.816;7.964;2023-02-11T03:00:17;101921.88;;;6.77;55.89
29215;BME280;16252;49.816;7.964;2023-02-11T03:03:21;101956.03;;;6.91;55.97
29215;BME280;16252;49.816;7.964;2023-02-11T03:06:12;101954.28;;;6.91;55.96
29215;BME280;16252;49.816;7.964;2023-02-11T03:08:50;101939.44;;;6.83;56.10
29215;BME280;16252;49.816;7.964;2023-02-11T03:11:19;101956.22;;;6.86;55.98
29215;BME280;16252;49.816;7.964;2023-02-11T03:13:46;101955.31;;;6.86;56.04
29215;BME280;16252;49.816;7.964;2023-02-11T03:16:20;101954.31;;;6.90;55.98
29215;BME280;16252;49.816;7.964;2023-02-11T03:18:51;101917.66;;;6.70;56.07
29215;BME280;16252;49.816;7.964;2023-02-11T03:21:18;101935.19;;;6.77;56.03
29215;BME280;16252;49.816;7.964;2023-02-11T03:23:54;101926.28;;;6.78;56.05
29215;BME280;16252;49.816;7.964;2023-02-11T03:31:46;101895.59;;;6.66;56.10
29215;BME280;16252;49.816;7.964;2023-02-11T03:34:17;101936.69;;;6.86;56.01
29215;BME280;16252;49.816;7.964;2023-02-11T03:39:28;101927.81;;;6.87;55.97
29215;BME280;16252;49.816;7.964;2023-02-11T03:41:56;101934.91;;;6.86;56.05
29215;BME280;16252;49.816;7.964;2023-02-11T03:44:28;101903.25;;;6.77;56.23
29215;BME280;16252;49.816;7.964;2023-02-11T03:46:55;101922.72;;;6.79;55.93
29215;BME280;16252;49.816;7.964;2023-02-11T03:49:22;101920.78;;;6.84;56.05
29215;BME280;16252;49.816;7.964;2023-02-11T03:51:52;101891.00;;;6.71;56.18
29215;BME280;16252;49.816;7.964;2023-02-11T03:54:23;101905.72;;;6.83;56.01
29215;BME280;16252;49.816;7.964;2023-02-11T03:56:54;101917.75;;;6.97;56.14
29215;BME280;16252;49.816;7.964;2023-02-11T03:59:20;101893.34;;;6.82;56.00
29215;BME280;16252;49.816;7.964;2023-02-11T04:01:46;101893.22;;;6.87;55.93
29215;BME280;16252;49.816;7.964;2023-02-11T04:04:11;101873.13;;;6.77;55.97
29215;BME280;16252;49.816;7.964;2023-02-11T04:06:37;101889.56;;;6.89;55.69
29215;BME280;16252;49.816;7.964;2023-02-11T04:09:02;101882.47;;;6.90;55.82
29215;BME280;16252;49.816;7.964;2023-02-11T04:11:27;101853.41;;;6.84;55.78
29215;BME280;16252;49.816;7.964;2023-02-11T04:13:53;101826.09;;;6.77;55.88
29215;BME280;16252;49.816;7.964;2023-02-11T04:16:18;101808.69;;;6.67;55.49
29215;BME280;16252;49.816;7.964;2023-02-11T04:18:43;101821.88;;;6.70;55.48
29215;BME280;16252;49.816;7.964;2023-02-11T04:21:09;101803.63;;;6.58;55.63
29215;BME280;16252;49.816;7.964;2023-02-11T04:23:34;101800.25;;;6.53;55.56
29215;BME280;16252;49.816;7.964;2023-02-11T04:25:59;101791.41;;;6.52;55.66
29215;BME280;16252;49.816;7.964;2023-02-11T04:28:24;101811.38;;;6.65;55.72
29215;BME280;16252;49.816;7.964;2023-02-11T04:30:53;101795.84;;;6.51;55.72
29215;BME280;16252;49.816;7.964;2023-02-11T04:33:18;101821.16;;;6.65;55.65
29215;BME280;16252;49.816;7.964;2023-02-11T04:35:43;101806.34;;;6.56;56.05
29215;BME280;16252;49.816;7.964;2023-02-11T04:38:09;101802.19;;;6.47;55.87
29215;BME280;16252;49.816;7.964;2023-02-11T04:40:34;101825.84;;;6.57;55.97
29215;BME280;16252;49.816;7.964;2023-02-11T04:42:59;101822.56;;;6.48;56.29
29215;BME280;16252;49.816;7.964;2023-02-11T04:45:24;101844.69;;;6.49;56.00
29215;BME280;16252;49.816;7.964;2023-02-11T04:47:50;101822.81;;;6.39;56.05
29215;BME280;16252;49.816;7.964;2023-02-11T04:50:15;101860.22;;;6.63;56.21
29215;BME280;16252;49.816;7.964;2023-02-11T04:52:40;101857.63;;;6.61;55.90
29215;BME280;16252;49.816;7.964;2023-02-11T04:55:06;101873.28;;;6.70;56.31
29215;BME280;16252;49.816;7.964;2023-02-11T04:57:31;101848.81;;;6.59;56.04
29215;BME280;16252;49.816;7.964;2023-02-11T04:59:57;101872.44;;;6.70;56.15
29215;BME280;16252;49.816;7.964;2023-02-11T05:02:22;101879.31;;;6.77;56.16
29215;BME280;16252;49.816;7.964;2023-02-11T05:04:47;101870.59;;;6.72;56.09
29215;BME280;16252;49.816;7.964;2023-02-11T05:07:12;101880.06;;;6.81;56.09
29215;BME280;16252;49.816;7.964;2023-02-11T05:09:38;101865.38;;;6.69;55.98
29215;BME280;16252;49.816;7.964;2023-02-11T05:12:03;101874.75;;;6.81;56.19
29215;BME280;16252;49.816;7.964;2023-02-11T05:14:28;101864.31;;;6.75;56.04
29215;BME280;16252;49.816;7.964;2023-02-11T05:16:53;101870.22;;;6.84;55.80
29215;BME280;16252;49.816;7.964;2023-02-11T05:19:19;101880.00;;;6.84;55.88
29215;BME280;16252;49.816;7.964;2023-02-11T05:21:44;101867.81;;;6.77;56.20
29215;BME280;16252;49.816;7.964;2023-02-11T05:24:09;101853.03;;;6.66;55.97
29215;BME280;16252;49.816;7.964;2023-02-11T05:26:34;101867.72;;;6.78;55.74
29215;BME280;16252;49.816;7.964;2023-02-11T05:29:00;101858.06;;;6.76;55.88
29215;BME280;16252;49.816;7.964;2023-02-11T05:31:26;101866.69;;;6.84;55.96
29215;BME280;16252;49.816;7.964;2023-02-11T05:33:51;101835.19;;;6.70;55.87
29215;BME280;16252;49.816;7.964;2023-02-11T05:36:16;101835.16;;;6.71;55.74
29215;BME280;16252;49.816;7.964;2023-02-11T05:38:42;101835.06;;;6.73;55.96
29215;BME280;16252;49.816;7.964;2023-02-11T05:41:08;101871.72;;;6.93;55.91
29215;BME280;16252;49.816;7.964;2023-02-11T05:43:33;101846.31;;;6.83;55.89
29215;BME280;16252;49.816;7.964;2023-02-11T05:45:59;101853.28;;;6.87;55.86
29215;BME280;16252;49.816;7.964;2023-02-11T05:48:25;101834.91;;;6.79;55.94
29215;BME280;16252;49.816;7.964;2023-02-11T05:50:50;101842.81;;;6.81;55.80
29215;BME280;16252;49.816;7.964;2023-02-11T05:53:15;101868.19;;;6.92;55.58
29215;BME280;16252;49.816;7.964;2023-02-11T05:55:41;101832.41;;;6.73;55.83
29215;BME280;16252;49.816;7.964;2023-02-11T05:58:06;101856.91;;;6.84;55.76
29215;BME280;16252;49.816;7.964;2023-02-11T06:00:32;101861.31;;;6.85;55.79
29215;BME280;16252;49.816;7.964;2023-02-11T06:02:58;101846.38;;;6.81;55.89
29215;BME280;16252;49.816;7.964;2023-02-11T06:05:23;101857.81;;;6.83;55.83
29215;BME280;16252;49.816;7.964;2023-02-11T06:07:48;101858.72;;;6.84;55.97
29215;BME280;16252;49.816;7.964;2023-02-11T06:10:14;101879.59;;;6.96;55.74
29215;BME280;16252;49.816;7.964;2023-02-11T06:12:39;101858.63;;;6.87;55.83
29215;BME280;16252;49.816;7.964;2023-02-11T06:15:05;101849.91;;;6.82;55.88
29215;BME280;16252;49.816;7.964;2023-02-11T06:17:31;101850.81;;;6.81;55.81
29215;BME280;16252;49.816;7.964;2023-02-11T06:19:58;101867.31;;;6.92;56.11
29215;BME280;16252;49.816;7.964;2023-02-11T06:22:23;101849.19;;;6.77;55.64
29215;BME280;16252;49.816;7.964;2023-02-11T06:24:49;101828.19;;;6.66;55.88
29215;BME280;16252;49.816;7.964;2023-02-11T06:27:14;101838.78;;;6.69;55.84
29215;BME280;16252;49.816;7.964;2023-02-11T06:29:39;101851.84;;;6.77;55.92
29215;BME280;16252;49.816;7.964;2023-02-11T06:32:04;101820.44;;;6.60;55.83
29215;BME280;16252;49.816;7.964;2023-02-11T06:34:30;101875.53;;;6.84;55.71
29215;BME280;16252;49.816;7.964;2023-02-11T06:36:55;101854.53;;;6.75;55.85
29215;BME280;16252;49.816;7.964;2023-02-11T06:39:20;101850.38;;;6.66;55.80
29215;BME280;16252;49.816;7.964;2023-02-11T06:41:46;101848.72;;;6.62;55.80
29215;BME280;16252;49.816;7.964;2023-02-11T06:44:11;101877.75;;;6.70;55.82
29215;BME280;16252;49.816;7.964;2023-02-11T06:46:36;101870.88;;;6.63;55.67
29215;BME280;16252;49.816;7.964;2023-02-11T06:49:01;101898.91;;;6.75;55.77
29215;BME280;16252;49.816;7.964;2023-02-11T06:51:27;101867.44;;;6.59;55.88
29215;BME280;16252;49.816;7.964;2023-02-11T06:53:52;101868.50;;;6.54;55.87
29215;BME280;16252;49.816;7.964;2023-02-11T06:56:20;101890.41;;;6.62;56.05
29215;BME280;16252;49.816;7.964;2023-02-11T06:58:46;101890.44;;;6.60;56.19
29215;BME280;16252;49.816;7.964;2023-02-11T07:01:13;101899.09;;;6.68;56.16
29215;BME280;16252;49.816;7.964;2023-02-11T07:03:41;101896.59;;;6.62;56.11
29215;BME280;16252;49.816;7.964;2023-02-11T07:06:13;101907.00;;;6.70;56.39
29215;BME280;16252;49.816;7.964;2023-02-11T07:08:39;101885.53;;;6.46;56.06
29215;BME280;16252;49.816;7.964;2023-02-11T07:11:14;101914.09;;;6.71;56.23
29215;BME280;16252;49.816;7.964;2023-02-11T07:13:40;101901.09;;;6.60;56.08
29215;BME280;16252;49.816;7.964;2023-02-11T07:16:07;101872.03;;;6.54;56.19
29215;BME280;16252;49.816;7.964;2023-02-11T07:18:33;101883.44;;;6.58;56.11
29215;BME280;16252;49.816;7.964;2023-02-11T07:20:58;101880.88;;;6.55;56.06
29215;BME280;16252;49.816;7.964;2023-02-11T07:23:23;101873.75;;;6.55;56.10
29215;BME280;16252;49.816;7.964;2023-02-11T07:25:49;101870.25;;;6.53;56.02
29215;BME280;16252;49.816;7.964;2023-02-11T07:28:14;101878.09;;;6.58;56.25
29215;BME280;16252;49.816;7.964;2023-02-11T07:30:39;101876.38;;;6.57;56.25
29215;BME280;16252;49.816;7.964;2023-02-11T07:33:04;101873.81;;;6.54;56.58
29215;BME280;16252;49.816;7.964;2023-02-11T07:35:30;101873.66;;;6.58;56.34
29215;BME280;16252;49.816;7.964;2023-02-11T07:37:55;101855.34;;;6.49;56.27
29215;BME280;16252;49.816;7.964;2023-02-11T07:40:20;101888.63;;;6.62;56.36
29215;BME280;16252;49.816;7.964;2023-02-11T07:42:46;101866.63;;;6.56;56.57
29215;BME280;16252;49.816;7.964;2023-02-11T07:45:11;101875.44;;;6.58;56.58
29215;BME280;16252;49.816;7.964;2023-02-11T07:47:37;101859.78;;;6.48;56.49
29215;BME280;16252;49.816;7.964;2023-02-11T07:50:03;101900.72;;;6.72;56.44
29215;BME280;16252;49.816;7.964;2023-02-11T07:52:29;101852.84;;;6.43;56.71
29215;BME280;16252;49.816;7.964;2023-02-11T07:54:55;101884.97;;;6.66;56.55
29215;BME280;16252;49.816;7.964;2023-02-11T07:57:20;101904.00;;;6.82;56.43
29215;BME280;16252;49.816;7.964;2023-02-11T07:59:46;101895.25;;;6.79;56.53
29215;BME280;16252;49.816;7.964;2023-02-11T08:02:11;101889.00;;;6.80;56.37
29215;BME280;16252;49.816;7.964;2023-02-11T08:04:36;101888.16;;;6.78;56.58
29215;BME280;16252;49.816;7.964;2023-02-11T08:07:01;101885.34;;;6.82;56.33
29215;BME280;16252;49.816;7.964;2023-02-11T08:09:27;101894.84;;;6.91;56.45
29215;BME280;16252;49.816;7.964;2023-02-11T08:11:52;101894.81;;;6.92;56.33
29215;BME280;16252;49.816;7.964;2023-02-11T08:14:17;101879.84;;;6.88;56.23
29215;BME280;16252;49.816;7.964;2023-02-11T08:16:44;101878.09;;;6.87;56.23
29215;BME280;16252;49.816;7.964;2023-02-11T08:19:12;101886.06;;;6.89;56.34
29215;BME280;16252;49.816;7.964;2023-02-11T08:21:38;101877.66;;;6.73;56.33
29215;BME280;16252;49.816;7.964;2023-02-11T08:24:04;101903.63;;;6.94;56.33
29215;BME280;16252;49.816;7.964;2023-02-11T08:26:31;101899.19;;;6.93;56.40
29215;BME280;16252;49.816;7.964;2023-02-11T08:29:00;101886.81;;;6.92;56.50
29215;BME280;16252;49.816;7.964;2023-02-11T08:31:28;101895.56;;;6.96;56.45
29215;BME280;16252;49.816;7.964;2023-02-11T08:33:54;101888.66;;;6.90;56.40
29215;BME280;16252;49.816;7.964;2023-02-11T08:36:24;101922.50;;;7.15;56.44
29215;BME280;16252;49.816;7.964;2023-02-11T08:38:50;101924.16;;;7.19;56.33
29215;BME280;16252;49.816;7.964;2023-02-11T08:41:16;101927.56;;;7.23;56.43
29215;BME280;16252;49.816;7.964;2023-02-11T08:43:43;101922.97;;;7.28;56.34
29215;BME280;16252;49.816;7.964;2023-02-11T08:46:12;101935.94;;;7.38;56.43
29215;BME280;16252;49.816;7.964;2023-02-11T08:48:37;101917.63;;;7.29;56.19
29215;BME280;16252;49.816;7.964;2023-02-11T08:51:07;101933.16;;;7.42;56.08
29215;BME280;16252;49.816;7.964;2023-02-11T08:53:34;101950.59;;;7.52;55.99
29215;BME280;16252;49.816;7.964;2023-02-11T08:55:59;101920.66;;;7.45;55.81
29215;BME280;16252;49.816;7.964;2023-02-11T08:58:24;101921.38;;;7.50;55.68
29215;BME280;16252;49.816;7.964;2023-02-11T09:00:50;101887.81;;;7.45;55.97
29215;BME280;16252;49.816;7.964;2023-02-11T09:03:15;101924.50;;;7.63;55.76
29215;BME280;16252;49.816;7.964;2023-02-11T09:05:45;101914.56;;;7.68;55.78
29215;BME280;16252;49.816;7.964;2023-02-11T09:08:10;101870.34;;;7.36;55.78
29215;BME280;16252;49.816;7.964;2023-02-11T09:10:36;101915.41;;;7.69;55.94
29215;BME280;16252;49.816;7.964;2023-02-11T09:13:02;101911.22;;;7.62;55.62
29215;BME280;16252;49.816;7.964;2023-02-11T09:15:28;101929.53;;;7.72;55.84
29215;BME280;16252;49.816;7.964;2023-02-11T09:17:53;101937.59;;;7.69;55.66
29215;BME280;16252;49.816;7.964;2023-02-11T09:20:18;101920.13;;;7.60;55.53
29215;BME280;16252;49.816;7.964;2023-02-11T09:22:44;101919.16;;;7.63;55.57
29215;BME280;16252;49.816;7.964;2023-02-11T09:25:09;101942.78;;;7.74;55.64
29215;BME280;16252;49.816;7.964;2023-02-11T09:27:34;101915.78;;;7.58;55.73
29215;BME280;16252;49.816;7.964;2023-02-11T09:30:00;101920.06;;;7.62;55.61
29215;BME280;16252;49.816;7.964;2023-02-11T09:32:25;101935.66;;;7.74;55.63
29215;BME280;16252;49.816;7.964;2023-02-11T09:34:50;101917.00;;;7.74;55.74
29215;BME280;16252;49.816;7.964;2023-02-11T09:37:15;101944.16;;;7.86;55.59
29215;BME280;16252;49.816;7.964;2023-02-11T09:39:41;101940.47;;;7.90;55.65
29215;BME280;16252;49.816;7.964;2023-02-11T09:42:24;101952.38;;;8.04;55.62
29215;BME280;16252;49.816;7.964;2023-02-11T09:44:58;101950.97;;;7.94;55.82
29215;BME280;16252;49.816;7.964;2023-02-11T09:47:31;101971.72;;;8.11;55.53
29215;BME280;16252;49.816;7.964;2023-02-11T09:50:09;101960.91;;;8.16;55.62
29215;BME280;16252;49.816;7.964;2023-02-11T09:52:57;101971.06;;;8.30;55.63
29215;BME280;16252;49.816;7.964;2023-02-11T09:55:34;101987.63;;;8.41;55.47
29215;BME280;16252;49.816;7.964;2023-02-11T09:58:26;101977.91;;;8.38;55.25
29215;BME280;16252;49.816;7.964;2023-02-11T10:01:14;101993.31;;;8.55;55.34
29215;BME280;16252;49.816;7.964;2023-02-11T10:03:59;101973.88;;;8.52;55.51
29215;BME280;16252;49.816;7.964;2023-02-11T10:06:42;101975.03;;;8.68;55.55
29215;BME280;16252;49.816;7.964;2023-02-11T10:22:54;101976.75;;;9.62;55.05
29215;BME280;16252;49.816;7.964;2023-02-11T10:25:25;101973.75;;;9.69;54.66
29215;BME280;16252;49.816;7.964;2023-02-11T10:27:54;101979.28;;;9.87;54.58
29215;BME280;16252;49.816;7.964;2023-02-11T10:30:32;101971.88;;;9.93;54.25
29215;BME280;16252;49.816;7.964;2023-02-11T10:33:11;101958.66;;;9.90;54.24
29215;BME280;16252;49.816;7.964;2023-02-11T10:35:37;101958.38;;;9.96;54.16
29215;BME280;16252;49.816;7.964;2023-02-11T10:38:03;101942.59;;;9.90;54.31
29215;BME280;16252;49.816;7.964;2023-02-11T10:40:30;101961.72;;;10.02;54.04
29215;BME280;16252;49.816;7.964;2023-02-11T10:43:03;101967.56;;;10.11;54.07
29215;BME280;16252;49.816;7.964;2023-02-11T10:45:38;101959.47;;;10.13;53.98
29215;BME280;16252;49.816;7.964;2023-02-11T10:51:13;101966.88;;;10.27;54.05
29215;BME280;16252;49.816;7.964;2023-02-11T10:53:39;101948.50;;;10.19;54.03
29215;BME280;16252;49.816;7.964;2023-02-11T10:56:06;101954.50;;;10.24;54.03
29215;BME280;16252;49.816;7.964;2023-02-11T10:58:40;101955.94;;;10.33;53.74
29215;BME280;16252;49.816;7.964;2023-02-11T11:01:08;101970.94;;;10.37;53.84
29215;BME280;16252;49.816;7.964;2023-02-11T11:03:49;101965.38;;;10.41;54.01
29215;BME280;16252;49.816;7.964;2023-02-11T11:06:16;101966.19;;;10.44;53.81
29215;BME280;16252;49.816;7.964;2023-02-11T11:08:52;101940.09;;;10.28;53.82
29215;BME280;16252;49.816;7.964;2023-02-11T11:11:20;101958.88;;;10.47;53.78
29215;BME280;16252;49.816;7.964;2023-02-11T11:16:23;101961.50;;;10.49;53.73
29215;BME280;16252;49.816;7.964;2023-02-11T11:18:53;101953.06;;;10.37;53.78
29215;BME280;16252;49.816;7.964;2023-02-11T11:26:50;101957.25;;;10.43;53.78
29215;BME280;16252;49.816;7.964;2023-02-11T11:29:19;101965.09;;;10.48;54.01
29215;BME280;16252;49.816;7.964;2023-02-11T11:31:49;101967.16;;;10.61;53.93
29215;BME280;16252;49.816;7.964;2023-02-11T11:34:37;101966.56;;;10.55;53.99
29215;BME280;16252;49.816;7.964;2023-02-11T11:37:12;101910.97;;;10.20;54.06
29215;BME280;16252;49.816;7.964;2023-02-11T11:39:39;101973.13;;;10.48;54.29
29215;BME280;16252;49.816;7.964;2023-02-11T11:42:29;101957.72;;;10.53;54.13
29215;BME280;16252;49.816;7.964;2023-02-11T11:44:57;101951.13;;;10.41;54.41
29215;BME280;16252;49.816;7.964;2023-02-11T11:47:30;101959.53;;;10.52;54.33
29215;BME280;16252;49.816;7.964;2023-02-11T11:50:13;101956.00;;;10.52;54.33
29215;BME280;16252;49.816;7.964;2023-02-11T11:52:51;101923.97;;;10.30;54.26
29215;BME280;16252;49.816;7.964;2023-02-11T11:55:28;101948.22;;;10.46;54.44
29215;BME280;16252;49.816;7.964;2023-02-11T11:57:55;101935.41;;;10.33;54.49
29215;BME280;16252;49.816;7.964;2023-02-11T12:00:31;101934.28;;;10.39;54.52
29215;BME280;16252;49.816;7.964;2023-02-11T12:06:29;101955.72;;;10.58;54.60
29215;BME280;16252;49.816;7.964;2023-02-11T12:09:12;101951.16;;;10.60;54.65
29215;BME280;16252;49.816;7.964;2023-02-11T12:14:48;101948.94;;;10.70;54.60
29215;BME280;16252;49.816;7.964;2023-02-11T12:17:27;101959.66;;;10.70;54.70
29215;BME280;16252;49.816;7.964;2023-02-11T12:23:13;101959.00;;;10.83;54.56
29215;BME280;16252;49.816;7.964;2023-02-11T12:25:55;101961.56;;;10.87;54.53
29215;BME280;16252;49.816;7.964;2023-02-11T12:28:50;101939.53;;;10.80;54.53
29215;BME280;16252;49.816;7.964;2023-02-11T12:37:27;101918.19;;;10.78;54.51
29215;BME280;16252;49.816;7.964;2023-02-11T12:40:15;101919.84;;;10.81;54.51
29215;BME280;16252;49.816;7.964;2023-02-11T12:42:54;101941.44;;;10.97;54.45
29215;BME280;16252;49.816;7.964;2023-02-11T12:45:45;101938.47;;;11.03;54.65
29215;BME280;16252;49.816;7.964;2023-02-11T12:48:55;101925.28;;;10.98;54.41
29215;BME280;16252;49.816;7.964;2023-02-11T12:57:05;101930.06;;;11.11;54.50
29215;BME280;16252;49.816;7.964;2023-02-11T12:59:57;101916.81;;;11.07;54.25
29215;BME280;16252;49.816;7.964;2023-02-11T13:02:48;101915.72;;;11.12;54.39
29215;BME280;16252;49.816;7.964;2023-02-11T13:05:43;101923.47;;;11.18;54.56
29215;BME280;16252;49.816;7.964;2023-02-11T13:08:15;101914.84;;;11.11;54.45
29215;BME280;16252;49.816;7.964;2023-02-11T13:10:45;101900.78;;;11.06;54.40
29215;BME280;16252;49.816;7.964;2023-02-11T13:13:22;101917.16;;;11.19;54.48
29215;BME280;16252;49.816;7.964;2023-02-11T13:15:54;101891.91;;;11.05;54.35
29215;BME280;16252;49.816;7.964;2023-02-11T13:21:27;101883.88;;;11.05;54.50
29215;BME280;16252;49.816;7.964;2023-02-11T13:24:03;101902.03;;;11.18;54.37
29215;BME280;16252;49.816;7.964;2023-02-11T13:35:38;101872.94;;;11.10;54.54
29215;BME280;16252;49.816;7.964;2023-02-11T13:38:11;101885.88;;;11.19;54.62
29215;BME280;16252;49.816;7.964;2023-02-11T13:40:42;101887.38;;;11.25;54.67
29215;BME280;16252;49.816;7.964;2023-02-11T13:43:22;101885.50;;;11.27;54.59
29215;BME280;16252;49.816;7.964;2023-02-11T13:45:49;101905.03;;;11.29;54.63
29215;BME280;16252;49.816;7.964;2023-02-11T13:48:22;101894.91;;;11.36;54.73
29215;BME280;16252;49.816;7.964;2023-02-11T13:50:51;101867.91;;;11.21;54.48
29215;BME280;16252;49.816;7.964;2023-02-11T13:53:17;101847.84;;;11.11;54.16
29215;BME280;16252;49.816;7.964;2023-02-11T13:55:45;101861.50;;;11.24;54.09
29215;BME280;16252;49.816;7.964;2023-02-11T13:58:16;101883.22;;;11.37;54.14
29215;BME280;16252;49.816;7.964;2023-02-11T14:00:46;101888.66;;;11.35;54.19
29215;BME280;16252;49.816;7.964;2023-02-11T14:06:20;101873.03;;;11.26;53.93
29215;BME280;16252;49.816;7.964;2023-02-11T14:19:42;101885.09;;;11.17;54.16
29215;BME280;16252;49.816;7.964;2023-02-11T14:30:12;101855.84;;;10.94;54.09
29215;BME280;16252;49.816;7.964;2023-02-11T14:33:14;101891.31;;;11.18;54.14
29215;BME280;16252;49.816;7.964;2023-02-11T14:39:00;101871.50;;;11.03;54.11
29215;BME280;16252;49.816;7.964;2023-02-11T14:41:34;101884.81;;;11.04;54.21
29215;BME280;16252;49.816;7.964;2023-02-11T14:44:05;101845.75;;;10.81;54.26
29215;BME280;16252;49.816;7.964;2023-02-11T14:46:32;101870.50;;;10.87;54.20
29215;BME280;16252;49.816;7.964;2023-02-11T14:49:04;101886.53;;;11.05;54.24
29215;BME280;16252;49.816;7.964;2023-02-11T14:51:30;101891.34;;;10.99;54.27
29215;BME280;16252;49.816;7.964;2023-02-11T14:54:00;101888.78;;;10.96;54.40
29215;BME280;16252;49.816;7.964;2023-02-11T14:56:28;101876.72;;;10.87;54.40
29215;BME280;16252;49.816;7.964;2023-02-11T14:58:59;101845.03;;;10.59;54.32
29215;BME280;16252;49.816;7.964;2023-02-11T15:01:32;101896.97;;;10.93;54.21
29215;BME280;16252;49.816;7.964;2023-02-11T15:03:59;101900.88;;;10.85;54.48